Condor Express — 9V5373 — position and weather

sailwx.info

Track history (hours):
 
Tides and Currents Weather Stations Pressure Air Temp Water Temp Dewpoint Dewpoint Depression Visibility Wind Speed Wind Dir Waves Ship Positions

Condor Express

Operator: Condor Marine Services

Last reported at 2017-Feb-27 14:33 UTC. Time now 2017-Mar-24 10:06 UTC.
Position N 38°17' E 122°06'.
Warning: this ship's position is 24 days out of date.

Length 235 m; draft 7.6 m.

Type: Cargo ship. MMSI: 563014500.

Date/timePositionNaut miles runAvg speedWind from/ knotsBaromVisibWave heightAir tempDewpointWater temp
2017-Feb-27 14:33N 38°17' E 122°06'1312.5
2017-Feb-27 13:33N 38°23' E 121°51'1312.6
2017-Feb-27 12:33N 38°27' E 121°36'1313.4
2017-Feb-27 11:33N 38°29' E 121°19'1212.4
2017-Feb-27 10:33N 38°28' E 121°04'1313.0
2017-Feb-27 09:33N 38°34' E 120°49'1514.3
2017-Feb-27 08:32N 38°36' E 120°30'  
2017-Feb-25 00:23N 38°42' E 120°10'1310.5
2017-Feb-24 23:10N 38°40' E 120°26'610.1
2017-Feb-24 22:33N 38°39' E 120°34'10 9.6
2017-Feb-24 21:33N 38°36' E 120°45'9 8.2
2017-Feb-24 20:31N 38°38' E 120°56'7 7.4
2017-Feb-24 19:33N 38°34' E 121°03'1110.6
2017-Feb-24 18:33N 38°29' E 121°15'1211.6
2017-Feb-24 17:33N 38°23' E 121°28'1211.8
2017-Feb-24 16:33N 38°20' E 121°42'1211.8
2017-Feb-24 15:33N 38°13' E 121°55'  
Track history (hours):
 
Tides and Currents Weather Stations Pressure Air Temp Water Temp Dewpoint Dewpoint Depression Visibility Wind Speed Wind Dir Waves Ship Positions

Condor Express

Operator: Condor Marine Services

Last reported at 2017-Feb-27 14:33 UTC. Time now 2017-Mar-24 10:06 UTC.
Position N 38°17' E 122°06'.
Warning: this ship's position is 24 days out of date.

Length 235 m; draft 7.6 m.

Type: Cargo ship. MMSI: 563014500.

Date/timePositionNaut miles runAvg speedWind from/ knotsBaromVisibWave heightAir tempDewpointWater temp
2017-Feb-27 14:33N 38°17' E 122°06'1312.5
2017-Feb-27 13:33N 38°23' E 121°51'1312.6
2017-Feb-27 12:33N 38°27' E 121°36'1313.4
2017-Feb-27 11:33N 38°29' E 121°19'1212.4
2017-Feb-27 10:33N 38°28' E 121°04'1313.0
2017-Feb-27 09:33N 38°34' E 120°49'1514.3
2017-Feb-27 08:32N 38°36' E 120°30'  
2017-Feb-25 00:23N 38°42' E 120°10'1310.5
2017-Feb-24 23:10N 38°40' E 120°26'610.1
2017-Feb-24 22:33N 38°39' E 120°34'10 9.6
2017-Feb-24 21:33N 38°36' E 120°45'9 8.2
2017-Feb-24 20:31N 38°38' E 120°56'7 7.4
2017-Feb-24 19:33N 38°34' E 121°03'1110.6
2017-Feb-24 18:33N 38°29' E 121°15'1211.6
2017-Feb-24 17:33N 38°23' E 121°28'1211.8
2017-Feb-24 16:33N 38°20' E 121°42'1211.8
2017-Feb-24 15:33N 38°13' E 121°55'  

Dump ship's entire track history